createdAt,value
2019-01-12T00:01:50.983Z,31.78
2019-01-12T00:04:20.702Z,31.86
2019-01-12T00:06:50.289Z,31.57
2019-01-12T00:09:19.944Z,31.70
2019-01-12T00:11:49.512Z,31.60
2019-01-12T00:14:19.134Z,31.73
2019-01-12T00:16:48.773Z,31.63
2019-01-12T00:19:18.383Z,30.47
2019-01-12T00:21:47.942Z,30.80
2019-01-12T00:24:17.473Z,30.69
2019-01-12T00:26:47.082Z,31.60
2019-01-12T00:29:16.811Z,31.70
2019-01-12T00:31:46.367Z,31.68
2019-01-12T00:34:16.007Z,31.56
2019-01-12T00:36:45.611Z,31.49
2019-01-12T00:39:16.134Z,31.44
2019-01-12T00:41:45.841Z,31.42
2019-01-12T00:44:15.480Z,31.45
2019-01-12T00:46:45.006Z,31.46
2019-01-12T00:49:14.557Z,31.46
2019-01-12T00:51:44.096Z,31.34
2019-01-12T00:54:13.644Z,31.31
2019-01-12T00:56:43.391Z,31.31
2019-01-12T00:59:12.858Z,31.45
2019-01-12T01:01:42.405Z,31.46
2019-01-12T01:04:11.996Z,31.38
2019-01-12T01:06:41.585Z,31.33
2019-01-12T01:09:11.122Z,31.31
2019-01-12T01:11:40.731Z,31.26
2019-01-12T01:14:10.319Z,31.26
2019-01-12T01:16:39.859Z,31.27
2019-01-12T01:19:09.450Z,31.47
2019-01-12T01:21:38.944Z,31.42
2019-01-12T01:24:08.462Z,31.45
2019-01-12T01:26:38.082Z,31.29
2019-01-12T01:29:07.644Z,31.25
2019-01-12T01:31:37.194Z,31.17
2019-01-12T01:34:06.764Z,30.76
2019-01-12T01:36:36.273Z,30.84
2019-01-12T01:39:08.666Z,31.29
2019-01-12T01:41:38.180Z,31.39
2019-01-12T01:44:07.758Z,31.49
2019-01-12T01:46:37.305Z,31.35
2019-01-12T01:49:06.804Z,31.28
2019-01-12T01:51:36.391Z,31.36
2019-01-12T01:54:05.909Z,31.20
2019-01-12T01:56:35.437Z,31.16
2019-01-12T01:59:04.990Z,31.24
2019-01-12T02:01:34.642Z,30.73
2019-01-12T02:04:04.134Z,29.94
2019-01-12T02:06:33.619Z,30.24
2019-01-12T02:09:05.035Z,30.74
2019-01-12T02:11:34.573Z,31.18
2019-01-12T02:14:04.117Z,31.26
2019-01-12T02:16:33.725Z,31.04
2019-01-12T02:19:03.327Z,31.04
2019-01-12T02:21:32.852Z,30.97
2019-01-12T02:24:02.413Z,30.86
2019-01-12T02:26:31.984Z,30.96
2019-01-12T02:29:01.552Z,31.19
2019-01-12T02:31:31.035Z,31.20
2019-01-12T02:34:00.576Z,30.92
2019-01-12T02:36:30.119Z,29.64
2019-01-12T02:38:59.653Z,29.87
2019-01-12T02:41:29.207Z,30.04
2019-01-12T02:43:58.702Z,30.78
2019-01-12T02:46:28.185Z,31.10
2019-01-12T02:48:57.831Z,31.03
2019-01-12T02:51:27.434Z,31.11
2019-01-12T02:53:57.046Z,31.03
2019-01-12T02:56:26.649Z,30.92
2019-01-12T02:58:56.216Z,30.81
2019-01-12T03:01:25.760Z,30.98
2019-01-12T03:03:55.365Z,31.01
2019-01-12T03:06:24.949Z,29.49
2019-01-12T03:08:54.483Z,29.61
2019-01-12T03:11:24.097Z,30.04
2019-01-12T03:13:53.556Z,30.36
2019-01-12T03:16:23.094Z,30.78
2019-01-12T03:18:52.681Z,30.84
2019-01-12T03:21:22.349Z,30.91
2019-01-12T03:23:51.926Z,30.91
2019-01-12T03:26:21.300Z,30.84
2019-01-12T03:28:50.933Z,30.78
2019-01-12T03:31:20.541Z,29.39
2019-01-12T03:33:50.283Z,29.71
2019-01-12T03:36:19.862Z,29.54
2019-01-12T03:38:49.342Z,29.92
2019-01-12T03:41:18.888Z,30.40
2019-01-12T03:43:48.488Z,30.49
2019-01-12T03:46:18.067Z,30.82
2019-01-12T03:48:47.596Z,30.79
2019-01-12T03:51:17.176Z,30.43
2019-01-12T03:53:46.682Z,30.91
2019-01-12T03:56:16.230Z,31.02
2019-01-12T03:58:45.821Z,31.17
2019-01-12T04:01:15.438Z,30.97
2019-01-12T04:03:44.906Z,31.04
2019-01-12T04:06:14.421Z,30.99
2019-01-12T04:08:44.058Z,30.92
2019-01-12T04:11:13.568Z,29.11
2019-01-12T04:13:43.122Z,29.35
2019-01-12T04:16:12.684Z,29.78
2019-01-12T04:18:42.293Z,30.33
2019-01-12T04:21:11.858Z,29.97
2019-01-12T04:23:41.408Z,30.77
2019-01-12T04:26:10.916Z,30.83
2019-01-12T04:28:40.489Z,30.88
2019-01-12T04:31:10.126Z,31.01
2019-01-12T04:33:39.603Z,30.93
2019-01-12T04:36:09.139Z,30.84
2019-01-12T04:38:38.748Z,30.71
2019-01-12T04:41:08.326Z,29.83
2019-01-12T04:43:37.979Z,29.63
2019-01-12T04:46:07.679Z,30.33
2019-01-12T04:48:37.324Z,30.56
2019-01-12T04:51:07.002Z,30.65
2019-01-12T04:53:36.643Z,30.45
2019-01-12T04:56:06.321Z,30.42
2019-01-12T04:58:35.859Z,30.39
2019-01-12T05:01:05.543Z,30.47
2019-01-12T05:03:35.252Z,30.39
2019-01-12T05:06:04.950Z,29.87
2019-01-12T05:08:34.578Z,30.14
2019-01-12T05:11:04.336Z,30.38
2019-01-12T05:13:34.099Z,30.55
2019-01-12T05:16:03.715Z,30.33
2019-01-12T05:18:33.419Z,30.34
2019-01-12T05:21:03.065Z,30.30
2019-01-12T05:23:32.736Z,30.27
2019-01-12T05:26:02.445Z,30.27
2019-01-12T05:28:31.983Z,30.41
2019-01-12T05:31:01.552Z,30.47
2019-01-12T05:33:31.191Z,30.44
2019-01-12T05:36:00.873Z,30.45
2019-01-12T05:38:30.487Z,30.18
2019-01-12T05:41:00.140Z,30.12
2019-01-12T05:43:29.819Z,29.95
2019-01-12T05:45:59.396Z,29.99
2019-01-12T05:48:28.920Z,30.08
2019-01-12T05:50:58.630Z,29.92
2019-01-12T05:53:28.563Z,31.35
2019-01-12T05:55:59.279Z,30.64
2019-01-12T05:58:28.783Z,30.36
2019-01-12T06:00:58.411Z,28.94
2019-01-12T06:03:28.107Z,28.47
2019-01-12T06:05:57.609Z,28.95
2019-01-12T06:08:27.326Z,29.31
2019-01-12T06:10:56.928Z,29.29
2019-01-12T06:13:26.580Z,29.26
2019-01-12T06:15:56.258Z,29.38
2019-01-12T06:18:25.864Z,29.30
2019-01-12T06:20:55.567Z,29.16
2019-01-12T06:23:25.199Z,27.88
2019-01-12T06:25:54.883Z,28.62
2019-01-12T06:28:24.600Z,28.99
2019-01-12T06:30:54.141Z,28.81
2019-01-12T06:33:23.824Z,28.74
2019-01-12T06:35:53.478Z,29.12
2019-01-12T06:38:23.148Z,29.15
2019-01-12T06:40:52.944Z,29.27
2019-01-12T06:43:23.336Z,29.45
2019-01-12T06:45:52.904Z,29.30
2019-01-12T06:48:22.597Z,29.35
2019-01-12T06:50:52.377Z,29.27
2019-01-12T06:53:22.023Z,27.49
2019-01-12T06:55:51.659Z,26.85
2019-01-12T06:58:21.341Z,27.83
2019-01-12T07:00:50.939Z,27.48
2019-01-12T07:03:20.574Z,27.11
2019-01-12T07:05:51.132Z,27.04
2019-01-12T07:08:20.802Z,27.44
2019-01-12T07:10:50.418Z,27.39
2019-01-12T07:13:20.118Z,27.42
2019-01-12T07:15:49.732Z,27.38
2019-01-12T07:18:19.445Z,27.48
2019-01-12T07:20:49.161Z,27.60
2019-01-12T07:23:18.784Z,27.58
2019-01-12T07:25:48.459Z,27.53
2019-01-12T07:28:18.093Z,27.53
2019-01-12T07:30:47.774Z,27.62
2019-01-12T07:33:17.420Z,27.70
2019-01-12T07:35:46.985Z,27.83
2019-01-12T07:38:16.609Z,28.04
2019-01-12T07:40:46.212Z,27.70
2019-01-12T07:43:15.929Z,27.59
2019-01-12T07:45:45.524Z,27.71
2019-01-12T07:48:15.139Z,27.78
2019-01-12T07:50:44.955Z,27.93
2019-01-12T07:53:14.766Z,27.96
2019-01-12T07:55:44.481Z,27.82
2019-01-12T07:58:14.129Z,27.73
2019-01-12T08:00:43.809Z,27.79
2019-01-12T08:03:13.543Z,27.80
2019-01-12T08:05:43.131Z,27.82
2019-01-12T08:08:12.834Z,27.90
2019-01-12T08:10:42.525Z,27.92
2019-01-12T08:13:12.134Z,27.81
2019-01-12T08:15:41.747Z,27.78
2019-01-12T08:18:11.251Z,27.77
2019-01-12T08:20:40.959Z,27.77
2019-01-12T08:23:10.564Z,27.98
2019-01-12T08:25:40.295Z,28.15
2019-01-12T08:28:09.782Z,27.99
2019-01-12T08:30:39.309Z,27.79
2019-01-12T08:33:09.015Z,27.76
2019-01-12T08:35:38.615Z,27.83
2019-01-12T08:38:08.325Z,27.88
2019-01-12T08:40:38.052Z,28.01
2019-01-12T08:43:07.541Z,27.97
2019-01-12T08:45:37.164Z,27.87
2019-01-12T08:48:06.760Z,27.68
2019-01-12T08:50:36.482Z,27.46
2019-01-12T08:53:06.118Z,27.15
2019-01-12T08:55:35.937Z,27.13
2019-01-12T08:58:05.609Z,27.06
2019-01-12T09:00:35.216Z,27.14
2019-01-12T09:03:04.825Z,27.24
2019-01-12T09:05:34.453Z,27.47
2019-01-12T09:08:04.149Z,27.31
2019-01-12T09:10:33.767Z,27.14
2019-01-12T09:13:03.393Z,27.18
2019-01-12T09:15:32.932Z,27.34
2019-01-12T09:18:02.487Z,27.40
2019-01-12T09:20:32.162Z,27.55
2019-01-12T09:23:02.855Z,27.56
2019-01-12T09:25:32.437Z,27.56
2019-01-12T09:28:02.138Z,27.71
2019-01-12T09:30:31.859Z,27.69
2019-01-12T09:33:01.569Z,27.90
2019-01-12T09:35:31.346Z,28.10
2019-01-12T09:38:00.919Z,28.28
2019-01-12T09:40:30.613Z,28.46
2019-01-12T09:43:00.214Z,28.61
2019-01-12T09:45:29.957Z,28.49
2019-01-12T09:47:59.544Z,28.54
2019-01-12T09:50:29.266Z,28.58
2019-01-12T09:52:58.836Z,28.77
2019-01-12T09:55:28.346Z,29.08
2019-01-12T09:57:57.919Z,29.42
2019-01-12T10:00:28.002Z,29.78
2019-01-12T10:02:57.550Z,30.11
2019-01-12T10:05:27.094Z,30.36
2019-01-12T10:07:56.654Z,30.20
2019-01-12T10:10:26.274Z,30.55
2019-01-12T10:12:56.004Z,30.77
2019-01-12T10:15:25.721Z,31.16
2019-01-12T10:17:55.322Z,31.32
2019-01-12T10:20:24.852Z,31.32
2019-01-12T10:22:54.469Z,31.83
2019-01-12T10:25:24.067Z,31.83
2019-01-12T10:27:53.657Z,32.04
2019-01-12T10:30:25.124Z,32.36
2019-01-12T10:32:55.106Z,32.63
2019-01-12T10:35:24.775Z,33.15
2019-01-12T10:37:54.370Z,33.61
2019-01-12T10:40:24.075Z,33.58
2019-01-12T10:42:53.774Z,33.70
2019-01-12T10:45:24.650Z,33.72
2019-01-12T10:47:54.948Z,33.69
2019-01-12T10:50:30.589Z,33.72
2019-01-12T10:53:00.139Z,33.67
2019-01-12T10:55:29.818Z,33.74
2019-01-12T10:57:59.944Z,33.45
2019-01-12T11:00:34.891Z,33.36
2019-01-12T11:03:04.773Z,33.21
2019-01-12T11:05:34.346Z,33.15
2019-01-12T11:08:03.933Z,32.97
2019-01-12T11:10:33.597Z,32.98
2019-01-12T11:13:03.208Z,32.80
2019-01-12T11:15:32.997Z,32.86
2019-01-12T11:18:02.517Z,32.84
2019-01-12T11:20:32.243Z,32.38
2019-01-12T11:23:01.701Z,32.19
2019-01-12T11:25:31.218Z,32.17
2019-01-12T11:28:00.849Z,32.09
2019-01-12T11:30:30.471Z,31.92
2019-01-12T11:33:00.062Z,31.88
2019-01-12T11:35:29.690Z,32.11
2019-01-12T11:37:59.254Z,32.55
2019-01-12T11:40:28.798Z,32.46
2019-01-12T11:42:58.401Z,32.85
2019-01-12T11:45:27.921Z,32.50
2019-01-12T11:47:57.512Z,32.32
2019-01-12T11:50:27.095Z,32.21
2019-01-12T11:52:56.642Z,32.72
2019-01-12T11:55:26.129Z,32.88
2019-01-12T11:57:55.769Z,33.00
2019-01-12T12:00:30.042Z,34.21
2019-01-12T12:02:59.907Z,33.82
2019-01-12T12:05:29.589Z,34.42
2019-01-12T12:07:59.236Z,33.69
2019-01-12T12:10:28.797Z,33.84
2019-01-12T12:12:58.544Z,34.23
2019-01-12T12:15:28.140Z,34.91
2019-01-12T12:17:57.849Z,34.15
2019-01-12T12:20:28.615Z,34.35
2019-01-12T12:22:58.172Z,34.49
2019-01-12T12:25:27.900Z,34.46
2019-01-12T12:27:57.632Z,35.86
2019-01-12T12:30:32.964Z,34.84
2019-01-12T12:33:02.564Z,36.00
2019-01-12T12:35:37.654Z,32.87
2019-01-12T12:38:03.518Z,34.90
2019-01-12T12:40:33.233Z,35.05
2019-01-12T12:43:02.875Z,35.85
2019-01-12T12:45:33.921Z,28.16
2019-01-12T12:48:03.561Z,30.78
2019-01-12T12:50:32.884Z,33.35
2019-01-12T12:53:02.325Z,33.47
2019-01-12T12:55:31.771Z,33.84
2019-01-12T12:58:01.166Z,34.76
2019-01-12T13:00:32.458Z,34.73
2019-01-12T13:03:02.094Z,34.34
2019-01-12T13:05:31.665Z,35.06
2019-01-12T13:08:01.410Z,35.26
2019-01-12T13:10:32.248Z,34.45
2019-01-12T13:13:01.841Z,35.25
2019-01-12T13:15:31.542Z,34.92
2019-01-12T13:18:01.173Z,35.36
2019-01-12T13:20:30.870Z,30.22
2019-01-12T13:23:00.576Z,32.52
2019-01-12T13:25:30.165Z,34.16
2019-01-12T13:27:59.920Z,34.41
2019-01-12T13:30:29.394Z,34.49
2019-01-12T13:32:59.054Z,34.99
2019-01-12T13:35:28.715Z,35.15
2019-01-12T13:37:58.235Z,34.86
2019-01-12T13:40:28.958Z,34.98
2019-01-12T13:42:58.692Z,35.18
2019-01-12T13:45:28.284Z,35.17
2019-01-12T13:47:57.809Z,35.29
2019-01-12T13:50:28.454Z,31.96
2019-01-12T13:52:58.235Z,34.42
2019-01-12T13:55:27.944Z,34.87
2019-01-12T13:57:57.553Z,35.56
2019-01-12T14:00:36.066Z,35.14
2019-01-12T14:03:06.972Z,35.93
2019-01-12T14:05:36.502Z,35.49
2019-01-12T14:08:06.461Z,36.24
2019-01-12T14:10:36.361Z,35.78
2019-01-12T14:13:06.589Z,36.29
2019-01-12T14:15:36.164Z,36.52
2019-01-12T14:18:05.899Z,36.10
2019-01-12T14:20:40.368Z,35.84
2019-01-12T14:23:10.731Z,36.30
2019-01-12T14:25:40.458Z,36.59
2019-01-12T14:28:10.168Z,36.04
2019-01-12T14:30:39.868Z,36.05
2019-01-12T14:33:09.761Z,36.61
2019-01-12T14:35:39.383Z,36.41
2019-01-12T14:38:09.109Z,36.66
2019-01-12T14:40:38.817Z,36.51
2019-01-12T14:43:08.537Z,36.92
2019-01-12T14:45:38.249Z,36.98
2019-01-12T14:48:07.921Z,37.93
2019-01-12T14:50:37.459Z,37.76
2019-01-12T14:53:07.173Z,37.64
2019-01-12T14:55:36.896Z,38.02
2019-01-12T14:58:07.027Z,37.73
2019-01-12T15:00:36.520Z,37.82
2019-01-12T15:03:06.315Z,37.92
2019-01-12T15:05:36.281Z,37.97
2019-01-12T15:08:05.971Z,38.00
2019-01-12T15:10:35.572Z,38.04
2019-01-12T15:13:05.288Z,39.49
2019-01-12T15:15:34.886Z,39.21
2019-01-12T15:18:04.514Z,39.44
2019-01-12T15:20:34.194Z,38.95
2019-01-12T15:23:03.769Z,38.64
2019-01-12T15:25:33.481Z,39.01
2019-01-12T15:28:09.181Z,39.13
2019-01-12T15:30:34.877Z,38.80
2019-01-12T15:33:09.057Z,38.97
2019-01-12T15:35:40.123Z,37.02
2019-01-12T15:38:09.877Z,37.58
2019-01-12T15:40:39.386Z,36.94
2019-01-12T15:43:09.095Z,37.77
2019-01-12T15:45:38.776Z,37.96
2019-01-12T15:48:08.511Z,37.29
2019-01-12T15:50:38.193Z,37.39
2019-01-12T15:53:07.832Z,37.73
2019-01-12T15:55:37.508Z,37.96
2019-01-12T15:58:07.198Z,37.88
2019-01-12T16:00:36.828Z,37.74
2019-01-12T16:03:06.332Z,37.47
2019-01-12T16:05:35.739Z,37.46
2019-01-12T16:08:05.494Z,37.27
2019-01-12T16:10:35.040Z,37.12
2019-01-12T16:13:04.652Z,33.87
2019-01-12T16:15:34.394Z,35.95
2019-01-12T16:18:04.045Z,36.17
2019-01-12T16:20:38.814Z,35.95
2019-01-12T16:23:08.728Z,37.13
2019-01-12T16:25:39.006Z,35.70
2019-01-12T16:28:08.563Z,35.22
2019-01-12T16:30:38.299Z,35.04
2019-01-12T16:33:07.884Z,34.96
2019-01-12T16:35:37.497Z,34.98
2019-01-12T16:38:07.128Z,34.99
2019-01-12T16:40:36.924Z,34.07
2019-01-12T16:43:06.432Z,35.41
2019-01-12T16:45:36.060Z,36.96
2019-01-12T16:48:05.728Z,35.85
2019-01-12T16:50:35.360Z,36.07
2019-01-12T16:53:05.055Z,36.72
2019-01-12T16:55:34.872Z,37.42
2019-01-12T16:58:04.402Z,37.57
2019-01-12T17:00:34.083Z,37.30
2019-01-12T17:03:03.686Z,37.17
2019-01-12T17:05:33.348Z,36.67
2019-01-12T17:08:02.965Z,36.95
2019-01-12T17:10:32.564Z,36.96
2019-01-12T17:13:02.199Z,37.14
2019-01-12T17:15:34.932Z,37.18
2019-01-12T17:18:03.160Z,37.26
2019-01-12T17:20:33.080Z,36.77
2019-01-12T17:23:04.091Z,36.78
2019-01-12T17:25:33.869Z,36.41
2019-01-12T17:28:03.491Z,36.10
2019-01-12T17:30:33.187Z,35.95
2019-01-12T17:33:02.897Z,34.97
2019-01-12T17:35:32.497Z,34.87
2019-01-12T17:38:02.515Z,36.09
2019-01-12T17:40:31.988Z,35.30
2019-01-12T17:43:01.614Z,35.34
2019-01-12T17:45:31.376Z,35.44
2019-01-12T17:48:00.974Z,35.28
2019-01-12T17:50:30.555Z,35.32
2019-01-12T17:53:00.267Z,35.25
2019-01-12T17:55:29.941Z,35.11
2019-01-12T17:57:59.489Z,35.05
2019-01-12T18:00:39.603Z,34.95
2019-01-12T18:03:09.257Z,35.17
2019-01-12T18:05:38.855Z,35.41
2019-01-12T18:08:08.428Z,34.83
2019-01-12T18:10:37.971Z,35.11
2019-01-12T18:13:07.580Z,35.90
2019-01-12T18:15:37.163Z,34.90
2019-01-12T18:18:06.687Z,35.62
2019-01-12T18:20:36.427Z,35.45
2019-01-12T18:23:06.041Z,35.61
2019-01-12T18:25:35.956Z,35.61
2019-01-12T18:28:05.653Z,35.57
2019-01-12T18:30:36.555Z,35.39
2019-01-12T18:33:06.230Z,35.65
2019-01-12T18:35:35.847Z,35.42
2019-01-12T18:38:05.462Z,35.28
2019-01-12T18:40:35.061Z,35.27
2019-01-12T18:43:04.776Z,35.27
2019-01-12T18:45:34.503Z,35.28
2019-01-12T18:48:04.409Z,35.23
2019-01-12T18:50:34.124Z,35.05
2019-01-12T18:53:03.702Z,35.00
2019-01-12T18:55:33.444Z,35.02
2019-01-12T18:58:03.066Z,34.96
2019-01-12T19:00:32.694Z,35.00
2019-01-12T19:03:02.348Z,34.94
2019-01-12T19:05:32.007Z,34.94
2019-01-12T19:08:01.569Z,34.82
2019-01-12T19:10:31.309Z,34.79
2019-01-12T19:13:00.827Z,34.78
2019-01-12T19:15:31.618Z,34.79
2019-01-12T19:18:01.278Z,34.75
2019-01-12T19:20:30.919Z,34.69
2019-01-12T19:23:00.621Z,34.60
2019-01-12T19:25:30.328Z,34.62
2019-01-12T19:28:00.030Z,34.53
2019-01-12T19:30:29.575Z,34.52
2019-01-12T19:32:59.237Z,34.46
2019-01-12T19:35:29.031Z,34.51
2019-01-12T19:37:58.544Z,34.37
2019-01-12T19:40:28.274Z,34.42
2019-01-12T19:42:57.918Z,34.39
2019-01-12T19:45:27.560Z,34.44
2019-01-12T19:47:57.189Z,34.35
2019-01-12T19:50:27.479Z,34.35
2019-01-12T19:52:57.673Z,34.28
2019-01-12T19:55:27.352Z,34.24
2019-01-12T19:57:57.056Z,34.15
2019-01-12T20:00:32.159Z,34.17
2019-01-12T20:03:01.835Z,34.13
2019-01-12T20:05:31.556Z,34.15
2019-01-12T20:08:01.243Z,34.19
2019-01-12T20:10:30.833Z,34.17
2019-01-12T20:13:00.444Z,34.17
2019-01-12T20:15:30.173Z,34.12
2019-01-12T20:17:59.806Z,34.16
2019-01-12T20:20:29.371Z,34.25
2019-01-12T20:22:58.980Z,33.96
2019-01-12T20:25:30.116Z,33.77
2019-01-12T20:28:05.565Z,33.76
2019-01-12T20:31:24.943Z,33.70
2019-01-12T20:34:18.586Z,33.61
2019-01-12T20:37:33.953Z,33.58
2019-01-12T20:40:47.248Z,33.54
2019-01-12T20:43:34.898Z,33.37
2019-01-12T20:46:39.193Z,33.34
2019-01-12T20:49:57.791Z,33.37
2019-01-12T20:53:07.123Z,33.28
2019-01-12T20:56:02.746Z,33.36
2019-01-12T20:59:03.569Z,33.18
2019-01-12T21:02:30.419Z,33.22
2019-01-12T21:05:56.019Z,33.06
2019-01-12T21:09:08.970Z,32.96
2019-01-12T21:12:34.762Z,33.00
2019-01-12T21:15:32.358Z,32.84
2019-01-12T21:18:01.958Z,32.89
2019-01-12T21:20:31.506Z,32.94
2019-01-12T21:23:01.180Z,33.03
2019-01-12T21:25:30.801Z,33.05
2019-01-12T21:28:00.581Z,32.95
2019-01-12T21:30:30.322Z,33.02
2019-01-12T21:32:59.814Z,33.03
2019-01-12T21:35:29.436Z,33.03
2019-01-12T21:37:59.026Z,33.09
2019-01-12T21:40:28.685Z,33.06
2019-01-12T21:42:58.357Z,33.17
2019-01-12T21:45:28.055Z,33.21
2019-01-12T21:47:57.878Z,33.20
2019-01-12T21:50:27.567Z,33.10
2019-01-12T21:52:57.083Z,32.96
2019-01-12T21:55:26.880Z,32.93
2019-01-12T21:57:56.404Z,32.84
2019-01-12T22:00:26.116Z,32.75
2019-01-12T22:02:55.639Z,32.74
2019-01-12T22:05:25.237Z,32.57
2019-01-12T22:07:54.850Z,32.66
2019-01-12T22:10:24.352Z,32.60
2019-01-12T22:12:54.131Z,32.64
2019-01-12T22:15:23.786Z,32.51
2019-01-12T22:17:53.385Z,32.52
2019-01-12T22:20:22.998Z,32.42
2019-01-12T22:22:52.606Z,32.36
2019-01-12T22:25:22.321Z,32.26
2019-01-12T22:27:52.025Z,32.46
2019-01-12T22:30:21.478Z,32.41
2019-01-12T22:32:51.148Z,32.22
2019-01-12T22:35:20.783Z,32.21
2019-01-12T22:37:50.400Z,32.50
2019-01-12T22:40:20.777Z,32.57
2019-01-12T22:42:50.392Z,32.57
2019-01-12T22:45:20.024Z,32.59
2019-01-12T22:47:49.715Z,32.42
2019-01-12T22:50:19.375Z,32.44
2019-01-12T22:52:49.031Z,32.58
2019-01-12T22:55:18.747Z,32.55
2019-01-12T22:57:48.454Z,32.45
2019-01-12T23:00:45.250Z,32.39
2019-01-12T23:03:15.019Z,32.10
2019-01-12T23:05:44.731Z,32.22
2019-01-12T23:08:14.334Z,32.32
2019-01-12T23:10:43.869Z,32.22
2019-01-12T23:13:13.549Z,32.11
2019-01-12T23:15:43.188Z,32.12
2019-01-12T23:18:12.863Z,32.23
2019-01-12T23:20:42.609Z,32.08
2019-01-12T23:23:12.290Z,32.17
2019-01-12T23:25:42.013Z,32.26
2019-01-12T23:28:11.597Z,32.14
2019-01-12T23:30:41.402Z,31.87
2019-01-12T23:33:10.915Z,31.89
2019-01-12T23:35:40.480Z,32.12
2019-01-12T23:38:10.247Z,32.04
2019-01-12T23:40:39.990Z,31.83
2019-01-12T23:43:09.558Z,31.80
2019-01-12T23:45:39.187Z,31.92
2019-01-12T23:48:08.985Z,31.85
2019-01-12T23:50:38.596Z,31.78
2019-01-12T23:53:08.306Z,31.88
2019-01-12T23:55:38.034Z,31.80
2019-01-12T23:58:07.731Z,31.79
